createdAt,value
2019-04-25T00:02:44.734Z,26.10
2019-04-25T00:05:37.215Z,26.30
2019-04-25T00:08:29.159Z,26.50
2019-04-25T00:11:21.930Z,26.60
2019-04-25T00:14:14.500Z,26.80
2019-04-25T00:17:07.474Z,26.80
2019-04-25T00:20:01.475Z,27.00
2019-04-25T00:22:59.276Z,27.10
2019-04-25T00:25:57.818Z,27.20
2019-04-25T00:28:49.910Z,27.30
2019-04-25T00:31:43.736Z,27.40
2019-04-25T00:34:35.828Z,27.50
2019-04-25T00:37:27.956Z,27.50
2019-04-25T00:40:21.897Z,27.60
2019-04-25T00:43:14.042Z,27.60
2019-04-25T00:46:06.450Z,27.70
2019-04-25T00:48:58.472Z,27.70
2019-04-25T00:51:52.094Z,27.80
2019-04-25T00:54:44.236Z,27.80
2019-04-25T00:57:37.474Z,27.90
2019-04-25T01:00:48.994Z,27.90
2019-04-25T01:03:43.269Z,27.90
2019-04-25T01:06:35.200Z,28.00
2019-04-25T01:09:29.331Z,28.00
2019-04-25T01:12:22.003Z,28.10
2019-04-25T01:15:16.345Z,28.20
2019-04-25T01:18:08.951Z,28.20
2019-04-25T01:21:01.751Z,28.20
2019-04-25T01:23:55.791Z,28.30
2019-04-25T01:26:49.575Z,28.30
2019-04-25T01:29:42.325Z,28.30
2019-04-25T01:32:38.627Z,28.30
2019-04-25T01:35:48.476Z,28.40
2019-04-25T01:38:53.391Z,28.40
2019-04-25T01:42:09.378Z,28.50
2019-04-25T01:45:03.615Z,28.50
2019-04-25T01:47:56.291Z,28.60
2019-04-25T01:50:49.314Z,28.60
2019-04-25T01:53:44.154Z,28.60
2019-04-25T01:56:36.713Z,28.70
2019-04-25T01:59:29.041Z,28.70
2019-04-25T02:02:24.236Z,28.80
2019-04-25T02:05:17.740Z,28.80
2019-04-25T02:08:09.714Z,28.80
2019-04-25T02:11:24.033Z,28.80
2019-04-25T02:14:15.949Z,28.80
2019-04-25T02:17:07.914Z,28.90
2019-04-25T02:20:00.129Z,28.90
2019-04-25T02:22:52.366Z,28.90
2019-04-25T02:25:46.339Z,28.90
2019-04-25T02:28:38.824Z,28.90
2019-04-25T02:31:31.136Z,28.90
2019-04-25T02:34:25.086Z,29.00
2019-04-25T02:37:16.591Z,29.00
2019-04-25T02:40:09.461Z,29.00
2019-04-25T02:43:03.192Z,29.00
2019-04-25T02:46:15.039Z,29.10
2019-04-25T02:49:34.747Z,29.10
2019-04-25T02:52:25.127Z,29.10
2019-04-25T02:55:30.942Z,29.10
2019-04-25T02:58:11.243Z,29.10
2019-04-25T03:01:16.203Z,29.20
2019-04-25T03:03:59.375Z,29.20
2019-04-25T03:06:55.154Z,29.10
2019-04-25T03:09:47.000Z,29.10
2019-04-25T03:12:39.495Z,29.00
2019-04-25T03:15:34.258Z,29.00
2019-04-25T03:18:26.036Z,29.10
2019-04-25T03:21:25.005Z,29.10
2019-04-25T03:24:18.191Z,29.10
2019-04-25T03:27:10.943Z,29.10
2019-04-25T03:30:04.453Z,29.20
2019-04-25T03:32:56.524Z,29.20
2019-04-25T03:35:49.670Z,29.20
2019-04-25T03:38:44.068Z,29.20
2019-04-25T03:41:36.318Z,29.20
2019-04-25T03:44:29.357Z,29.20
2019-04-25T03:47:21.566Z,29.30
2019-04-25T03:50:14.106Z,29.30
2019-04-25T03:53:06.620Z,29.30
2019-04-25T03:55:58.875Z,29.30
2019-04-25T03:58:51.006Z,29.30
2019-04-25T04:01:43.887Z,29.30
2019-04-25T04:04:36.125Z,29.30
2019-04-25T04:07:28.365Z,29.40
2019-04-25T04:10:21.252Z,29.40
2019-04-25T04:13:14.607Z,29.40
2019-04-25T04:16:08.487Z,29.40
2019-04-25T04:19:01.436Z,29.40
2019-04-25T04:22:07.262Z,29.40
2019-04-25T04:25:03.667Z,29.40
2019-04-25T04:27:55.892Z,29.40
2019-04-25T04:30:47.775Z,29.40
2019-04-25T04:33:40.301Z,29.50
2019-04-25T04:36:41.729Z,29.50
2019-04-25T04:39:33.914Z,29.50
2019-04-25T04:42:26.047Z,29.50
2019-04-25T04:45:18.270Z,29.50
2019-04-25T04:48:10.276Z,29.60
2019-04-25T04:51:03.377Z,29.60
2019-04-25T04:53:56.145Z,29.60
2019-04-25T04:56:49.529Z,29.60
2019-04-25T04:59:41.605Z,29.60
2019-04-25T05:02:53.455Z,29.60
2019-04-25T05:06:06.865Z,29.60
2019-04-25T05:09:09.895Z,29.80
2019-04-25T05:12:04.019Z,29.90
2019-04-25T05:15:16.907Z,30.00
2019-04-25T05:18:12.198Z,30.10
2019-04-25T05:21:06.143Z,29.70
2019-04-25T05:24:04.136Z,29.40
2019-04-25T05:26:56.455Z,29.30
2019-04-25T05:29:48.904Z,29.30
2019-04-25T05:32:42.380Z,29.30
2019-04-25T05:35:37.918Z,29.20
2019-04-25T05:38:30.050Z,29.20
2019-04-25T05:41:30.748Z,29.20
2019-04-25T05:47:36.476Z,29.20
2019-04-25T05:50:31.053Z,29.20
2019-04-25T05:53:28.016Z,29.20
2019-04-25T05:56:24.655Z,29.20
2019-04-25T05:59:25.771Z,29.10
2019-04-25T06:02:19.794Z,29.10
2019-04-25T06:05:17.459Z,29.10
2019-04-25T06:08:11.151Z,29.10
2019-04-25T06:11:34.351Z,29.10
2019-04-25T06:14:29.887Z,29.10
2019-04-25T06:17:30.247Z,29.10
2019-04-25T06:20:31.648Z,29.00
2019-04-25T06:23:45.743Z,29.10
2019-04-25T06:27:29.199Z,29.10
2019-04-25T06:30:39.366Z,29.00
2019-04-25T06:33:40.118Z,29.00
2019-04-25T06:36:35.491Z,29.00
2019-04-25T06:39:29.322Z,29.10
2019-04-25T06:42:47.585Z,29.00
2019-04-25T06:46:01.276Z,29.00
2019-04-25T06:49:13.422Z,29.00
2019-04-25T06:52:09.048Z,28.90
2019-04-25T06:55:03.378Z,29.00
2019-04-25T06:58:10.100Z,28.60
2019-04-25T07:01:00.849Z,28.40
2019-04-25T07:04:02.016Z,28.40
2019-04-25T07:06:55.445Z,28.30
2019-04-25T07:09:48.246Z,28.30
2019-04-25T07:12:40.600Z,28.70
2019-04-25T07:15:36.398Z,28.90
2019-04-25T07:18:33.740Z,29.00
2019-04-25T07:21:24.777Z,29.00
2019-04-25T07:24:22.089Z,29.00
2019-04-25T07:27:32.427Z,29.00
2019-04-25T07:30:51.611Z,29.00
2019-04-25T07:33:49.018Z,29.10
2019-04-25T07:36:42.737Z,29.00
2019-04-25T07:39:36.868Z,29.10
2019-04-25T07:42:29.809Z,29.10
2019-04-25T07:45:31.094Z,29.00
2019-04-25T07:48:19.597Z,29.00
2019-04-25T07:51:16.351Z,28.90
2019-04-25T07:54:10.201Z,29.00
2019-04-25T07:57:03.646Z,28.50
2019-04-25T07:59:58.839Z,28.00
2019-04-25T08:02:57.505Z,27.60
2019-04-25T08:05:50.725Z,27.50
2019-04-25T08:08:44.784Z,27.30
2019-04-25T08:11:39.015Z,27.20
2019-04-25T08:14:54.179Z,27.20
2019-04-25T08:18:07.610Z,27.10
2019-04-25T08:21:00.472Z,27.20
2019-04-25T08:23:53.650Z,27.30
2019-04-25T08:26:46.482Z,27.50
2019-04-25T08:29:39.708Z,27.50
2019-04-25T08:32:34.830Z,27.40
2019-04-25T08:39:14.330Z,27.30
2019-04-25T08:42:08.190Z,27.20
2019-04-25T08:45:04.542Z,27.20
2019-04-25T08:48:09.876Z,27.20
2019-04-25T09:06:40.411Z,27.60
2019-04-25T09:09:38.964Z,27.80
2019-04-25T09:12:35.647Z,27.80
2019-04-25T09:15:36.585Z,27.80
2019-04-25T09:19:03.057Z,27.80
2019-04-25T09:22:46.753Z,27.80
2019-04-25T09:25:38.577Z,27.80
2019-04-25T09:28:58.330Z,27.90
2019-04-25T09:31:56.775Z,27.90
2019-04-25T09:34:58.483Z,27.90
2019-04-25T09:38:01.108Z,27.90
2019-04-25T09:41:09.099Z,27.90
2019-04-25T09:44:08.736Z,27.90
2019-04-25T09:47:01.039Z,27.80
2019-04-25T09:49:54.504Z,27.90
2019-04-25T09:52:56.046Z,27.90
2019-04-25T09:56:17.658Z,27.90
2019-04-25T10:02:30.305Z,27.90
2019-04-25T10:05:27.898Z,27.80
2019-04-25T10:08:27.108Z,27.90
2019-04-25T10:11:23.737Z,27.90
2019-04-25T10:14:34.008Z,27.80
2019-04-25T10:17:33.380Z,27.80
2019-04-25T10:20:33.259Z,27.80
2019-04-25T10:23:28.853Z,27.80
2019-04-25T10:26:27.666Z,27.90
2019-04-25T10:29:25.855Z,27.90
2019-04-25T10:32:20.292Z,27.90
2019-04-25T10:35:17.715Z,27.90
2019-04-25T10:38:18.328Z,27.90
2019-04-25T10:41:15.475Z,27.90
2019-04-25T10:44:17.806Z,27.80
2019-04-25T10:47:13.765Z,27.90
2019-04-25T10:50:10.869Z,27.90
2019-04-25T10:53:04.311Z,27.90
2019-04-25T10:55:58.426Z,27.80
2019-04-25T10:58:51.833Z,28.00
2019-04-25T11:01:45.044Z,28.00
2019-04-25T11:04:44.568Z,28.00
2019-04-25T11:07:37.219Z,27.90
2019-04-25T11:10:29.855Z,27.90
2019-04-25T11:13:24.542Z,27.90
2019-04-25T11:16:19.564Z,27.80
2019-04-25T11:19:13.598Z,27.80
2019-04-25T11:22:06.602Z,27.80
2019-04-25T11:25:01.630Z,27.80
2019-04-25T11:27:55.783Z,27.70
2019-04-25T11:30:54.169Z,27.80
2019-04-25T11:33:51.117Z,27.80
2019-04-25T11:36:48.452Z,27.80
2019-04-25T11:40:14.453Z,27.80
2019-04-25T11:43:09.340Z,27.80
2019-04-25T11:46:25.553Z,27.90
2019-04-25T11:49:35.700Z,27.80
2019-04-25T11:56:14.915Z,27.90
2019-04-25T11:59:10.752Z,27.70
2019-04-25T12:02:28.683Z,27.40
2019-04-25T12:05:23.870Z,27.40
2019-04-25T12:08:16.784Z,27.30
2019-04-25T12:11:10.746Z,27.30
2019-04-25T12:14:04.310Z,27.20
2019-04-25T12:16:59.096Z,27.30
2019-04-25T12:20:03.955Z,27.20
2019-04-25T12:23:06.251Z,27.20
2019-04-25T12:25:51.924Z,27.40
2019-04-25T12:28:44.995Z,27.60
2019-04-25T12:31:46.417Z,27.60
2019-04-25T12:34:39.697Z,27.40
2019-04-25T12:37:33.725Z,27.40
2019-04-25T12:40:29.273Z,27.20
2019-04-25T12:43:25.526Z,27.20
2019-04-25T12:46:24.644Z,27.10
2019-04-25T12:49:19.083Z,27.10
2019-04-25T12:52:13.028Z,27.20
2019-04-25T12:55:07.779Z,27.10
2019-04-25T12:58:03.520Z,27.10
2019-04-25T13:00:59.701Z,27.10
2019-04-25T13:03:54.022Z,27.00
2019-04-25T13:06:46.484Z,27.10
2019-04-25T13:09:40.977Z,27.40
2019-04-25T13:12:34.861Z,27.60
2019-04-25T13:15:28.620Z,27.60
2019-04-25T13:18:23.332Z,27.90
2019-04-25T13:21:16.532Z,28.40
2019-04-25T13:24:10.698Z,28.80
2019-04-25T13:27:15.207Z,29.20
2019-04-25T13:30:26.831Z,29.40
2019-04-25T13:33:33.553Z,29.60
2019-04-25T13:36:27.742Z,29.70
2019-04-25T13:39:24.055Z,29.60
2019-04-25T13:42:17.027Z,29.50
2019-04-25T13:45:09.425Z,29.50
2019-04-25T13:48:03.405Z,29.40
2019-04-25T13:50:55.928Z,29.40
2019-04-25T13:53:49.415Z,29.50
2019-04-25T13:56:43.281Z,29.40
2019-04-25T13:59:35.587Z,29.40
2019-04-25T14:02:28.869Z,29.40
2019-04-25T14:05:23.043Z,29.40
2019-04-25T14:08:16.522Z,29.50
2019-04-25T14:11:09.934Z,29.50
2019-04-25T14:14:03.128Z,29.50
2019-04-25T14:17:07.292Z,29.50
2019-04-25T14:20:19.161Z,29.50
2019-04-25T14:23:13.476Z,29.50
2019-04-25T14:26:07.763Z,29.50
2019-04-25T14:29:00.245Z,29.50
2019-04-25T14:31:53.314Z,29.50
2019-04-25T14:34:45.667Z,29.60
2019-04-25T14:37:39.698Z,29.60
2019-04-25T14:40:33.241Z,29.60
2019-04-25T14:43:26.193Z,29.60
2019-04-25T14:46:19.026Z,29.60
2019-04-25T14:49:12.073Z,29.60
2019-04-25T14:52:04.968Z,29.60
2019-04-25T14:55:15.638Z,29.60
2019-04-25T14:58:17.454Z,29.60
2019-04-25T15:01:10.614Z,29.60
2019-04-25T15:04:03.244Z,29.70
2019-04-25T15:06:57.120Z,29.60
2019-04-25T15:09:49.274Z,29.70
2019-04-25T15:12:42.629Z,29.70
2019-04-25T15:15:35.470Z,29.70
2019-04-25T15:18:28.754Z,29.60
2019-04-25T15:21:21.701Z,29.70
2019-04-25T15:24:14.867Z,29.70
2019-04-25T15:27:07.760Z,29.70
2019-04-25T15:30:02.055Z,29.70
2019-04-25T15:32:55.023Z,29.70
2019-04-25T15:35:55.661Z,29.70
2019-04-25T15:38:59.396Z,29.70
2019-04-25T15:42:06.743Z,29.70
2019-04-25T15:45:20.081Z,29.70
2019-04-25T15:48:13.072Z,29.80
2019-04-25T15:51:05.295Z,29.80
2019-04-25T15:53:57.544Z,29.80
2019-04-25T15:56:50.612Z,29.80
2019-04-25T15:59:44.571Z,29.80
2019-04-25T16:02:39.014Z,29.80
2019-04-25T16:05:31.678Z,29.80
2019-04-25T16:08:24.468Z,29.80
2019-04-25T16:11:17.867Z,29.80
2019-04-25T16:14:10.126Z,29.80
2019-04-25T16:17:03.072Z,29.80
2019-04-25T16:19:55.532Z,29.80
2019-04-25T16:22:47.997Z,29.80
2019-04-25T16:25:40.196Z,29.80
2019-04-25T16:28:32.362Z,29.80
2019-04-25T16:31:28.956Z,29.80
2019-04-25T16:34:21.925Z,29.80
2019-04-25T16:37:14.160Z,29.80
2019-04-25T16:40:06.596Z,29.90
2019-04-25T16:43:00.472Z,29.90
2019-04-25T16:45:53.862Z,29.90
2019-04-25T16:48:46.692Z,29.90
2019-04-25T16:51:39.013Z,29.80
2019-04-25T16:54:31.582Z,29.90
2019-04-25T16:57:24.251Z,29.90
2019-04-25T17:00:50.177Z,29.90
2019-04-25T17:03:44.742Z,29.90
2019-04-25T17:06:38.036Z,29.90
2019-04-25T17:09:31.769Z,29.90
2019-04-25T17:12:25.275Z,29.90
2019-04-25T17:15:38.824Z,29.90
2019-04-25T17:18:38.264Z,29.90
2019-04-25T17:21:31.314Z,29.90
2019-04-25T17:24:23.296Z,29.90
2019-04-25T17:27:16.050Z,29.90
2019-04-25T17:30:08.463Z,30.00
2019-04-25T17:33:21.170Z,29.60
2019-04-25T17:36:23.637Z,28.80
2019-04-25T17:39:47.720Z,28.00
2019-04-25T17:42:40.959Z,27.60
2019-04-25T17:45:35.070Z,27.30
2019-04-25T17:48:26.841Z,27.20
2019-04-25T17:51:18.973Z,27.00
2019-04-25T17:54:11.122Z,26.80
2019-04-25T17:57:03.287Z,26.80
2019-04-25T17:59:55.859Z,26.70
2019-04-25T18:02:58.422Z,26.60
2019-04-25T18:05:42.737Z,26.50
2019-04-25T18:08:35.545Z,26.40
2019-04-25T18:11:28.980Z,26.40
2019-04-25T18:14:20.774Z,26.30
2019-04-25T18:17:12.536Z,26.30
2019-04-25T18:20:10.327Z,26.20
2019-04-25T18:23:20.904Z,26.10
2019-04-25T18:26:24.980Z,26.10
2019-04-25T18:29:17.337Z,26.00
2019-04-25T18:32:09.478Z,26.00
2019-04-25T18:35:08.753Z,25.90
2019-04-25T18:38:07.852Z,25.80
2019-04-25T18:41:18.331Z,25.70
2019-04-25T18:44:10.741Z,25.70
2019-04-25T18:47:03.051Z,25.70
2019-04-25T18:49:56.063Z,25.70
2019-04-25T18:53:12.718Z,25.60
2019-04-25T18:56:23.347Z,25.60
2019-04-25T18:59:37.170Z,25.60
2019-04-25T19:03:00.002Z,25.50
2019-04-25T19:05:57.737Z,25.50
2019-04-25T19:08:52.461Z,25.40
2019-04-25T19:11:45.049Z,25.70
2019-04-25T19:14:39.857Z,26.30
2019-04-25T19:17:33.134Z,26.80
2019-04-25T19:20:26.198Z,26.80
2019-04-25T19:23:18.390Z,26.30
2019-04-25T19:26:10.929Z,25.90
2019-04-25T19:29:03.802Z,25.70
2019-04-25T19:31:55.989Z,25.50
2019-04-25T19:34:48.757Z,25.50
2019-04-25T19:37:41.850Z,25.40
2019-04-25T19:40:48.148Z,25.30
2019-04-25T19:43:46.527Z,25.20
2019-04-25T19:46:43.294Z,25.20
2019-04-25T19:49:35.987Z,25.20
2019-04-25T19:52:29.582Z,25.10
2019-04-25T19:55:20.901Z,25.10
2019-04-25T19:58:12.646Z,25.00
2019-04-25T20:01:04.824Z,25.00
2019-04-25T20:04:07.286Z,25.00
2019-04-25T20:07:32.475Z,25.00
2019-04-25T20:10:38.501Z,25.00
2019-04-25T20:13:30.560Z,24.90
2019-04-25T20:16:22.870Z,24.90
2019-04-25T20:19:15.012Z,24.80
2019-04-25T20:22:07.024Z,24.80
2019-04-25T20:24:59.318Z,24.80
2019-04-25T20:27:51.410Z,24.70
2019-04-25T20:30:43.103Z,24.70
2019-04-25T20:33:35.449Z,24.70
2019-04-25T20:36:27.891Z,24.70
2019-04-25T20:39:21.193Z,24.70
2019-04-25T20:42:13.222Z,24.60
2019-04-25T20:45:05.717Z,24.60
2019-04-25T20:47:58.177Z,24.60
2019-04-25T20:50:50.401Z,24.60
2019-04-25T20:53:42.193Z,24.60
2019-04-25T20:56:34.439Z,24.50
2019-04-25T20:59:26.732Z,24.50
2019-04-25T21:02:19.041Z,24.50
2019-04-25T21:05:12.355Z,24.50
2019-04-25T21:08:04.398Z,24.50
2019-04-25T21:10:56.669Z,24.40
2019-04-25T21:14:06.635Z,24.40
2019-04-25T21:17:02.923Z,24.40
2019-04-25T21:19:55.119Z,24.40
2019-04-25T21:22:47.422Z,24.40
2019-04-25T21:25:39.890Z,24.40
2019-04-25T21:28:31.793Z,24.40
2019-04-25T21:31:24.350Z,24.30
2019-04-25T21:34:25.913Z,24.30
2019-04-25T21:37:10.445Z,24.30
2019-04-25T21:40:10.142Z,24.30
2019-04-25T21:43:10.251Z,24.30
2019-04-25T21:46:03.018Z,24.30
2019-04-25T21:48:55.225Z,24.30
2019-04-25T21:51:47.209Z,24.30
2019-04-25T21:54:38.929Z,24.20
2019-04-25T21:57:31.349Z,24.20
2019-04-25T22:00:46.389Z,24.30
2019-04-25T22:03:40.218Z,24.20
2019-04-25T22:06:33.713Z,24.10
2019-04-25T22:09:26.279Z,24.10
2019-04-25T22:12:18.953Z,24.10
2019-04-25T22:15:13.826Z,24.10
2019-04-25T22:18:06.494Z,24.10
2019-04-25T22:21:00.154Z,24.10
2019-04-25T22:24:03.408Z,24.10
2019-04-25T22:26:46.028Z,24.10
2019-04-25T22:29:42.767Z,24.10
2019-04-25T22:32:51.284Z,24.00
2019-04-25T22:35:53.248Z,24.00
2019-04-25T22:38:46.094Z,24.00
2019-04-25T22:41:39.571Z,24.00
2019-04-25T22:44:32.241Z,24.00
2019-04-25T22:47:24.578Z,24.00
2019-04-25T22:50:16.876Z,24.10
2019-04-25T22:53:21.076Z,24.10
2019-04-25T22:56:03.116Z,24.00
2019-04-25T22:58:55.462Z,24.00
2019-04-25T23:02:00.813Z,23.90
2019-04-25T23:05:08.963Z,23.90
2019-04-25T23:07:57.601Z,24.10
2019-04-25T23:10:49.951Z,24.80
2019-04-25T23:13:42.766Z,25.30
2019-04-25T23:16:35.142Z,25.70
2019-04-25T23:19:27.242Z,26.00
2019-04-25T23:22:19.943Z,26.20
2019-04-25T23:25:14.852Z,26.40
2019-04-25T23:28:19.659Z,26.60
2019-04-25T23:31:31.028Z,26.70
2019-04-25T23:34:23.228Z,26.80
2019-04-25T23:37:15.225Z,27.00
2019-04-25T23:40:07.731Z,27.10
2019-04-25T23:42:59.557Z,27.10
2019-04-25T23:45:51.477Z,27.20
2019-04-25T23:48:43.809Z,27.30
2019-04-25T23:51:35.777Z,27.30
2019-04-25T23:54:28.602Z,27.40
2019-04-25T23:57:20.885Z,27.50
